Fairfield Glade, Tennessee
Current Conditions -  °F | °C
As of 12:53 AM on Saturday 25 Oct 2014 (Local Time) from KCSV Reporting Station
Clear Clear  
Wind Chill: 44°   Ceiling: Unl
Heat Index: 44°   Visibility: 10mi
Dew Point: 39°   Wind: 3mph
Humidity: 82%   Direction: 260°W
Pressure: 30.1"   Gusts: NA
Location:  36.0033°N, 84.8901°W
Report Text: KCSV 250553Z AUTO 26003KT 10SM CLR 07/04 A3010 RMK AO2 SLP186 T00670039 10139 20061 402060056 50000
Loading
Personal Weather Stations






























Interactive Weather Map
Tropical Storm Tracking
New forecast layout! Learn more

10-Day Weather Forecast

Advertisements
Track Severe Weather on mobile